EFJY

Jyvaskyla Airport

Jyväskylän Maalaiskunta, Finland
METAR EFJY 180150Z AUTO 18005KT 140V230 CAVOK 18/14 Q1013
Observed Flight Rules
Aug-18 @ 01:50 UTC (40 minutes ago) Visual Flight Rules
Wind Visibility Clouds
180° at 5 knots 10,000+ meters
  • Clear skies
Temperatures Readings
Current 18°C / 64°F
Dewpoint 14°C / 57°F
Humidity 78%
Altimeter 29.91" Hg
Pressure 1013 hPa
Elevation 145
METAR EFJY 180150Z AUTO 18005KT 140V230 CAVOK 18/14 Q1013
Observed Flight Rules
Aug-18 @ 01:50 UTC
(40 minutes ago)
VFR
Wind Visibility
180° at 5 knots 10,000+ meters
Clouds
  • Clear skies
Temperature Dewpoint
18°C / 64°F 14°C / 57°F
Humidity Altimeter Pressure
78% 29.91" Hg 1013 hPa